Terminal Aerodrome Forecast
Issued by NWS

Home | Current Version | Previous Version | Text Only | Print | Product List | Glossary On
Versions: 1 2 3 4 5 6 7 8 9 10 11 12 13 14 15 16 17 18 19 20 21 22
000
FTUS46 KSGX 100058 AAA
TAFSAN
TAF AMD
KSAN 100058Z 1001/1106 31011KT P6SM SCT015 BKN200
      TEMPO 1001/1003 BKN015
     FM100300 VRB06KT P6SM BKN015 OVC200
     FM102000 29009KT P6SM SCT020 BKN200
     FM110200 VRB05KT P6SM BKN015=

USA.gov is the U.S. government's official web portal to all federal, state and local government web resources and services.